createdAt,value
2022-11-10T00:00:59.212Z,2.40
2022-11-10T00:02:01.779Z,2.40
2022-11-10T00:03:07.604Z,2.20
2022-11-10T00:04:09.995Z,1.90
2022-11-10T00:05:14.251Z,1.77
2022-11-10T00:06:16.648Z,1.90
2022-11-10T00:07:20.266Z,2.10
2022-11-10T00:08:23.515Z,1.40
2022-11-10T00:09:25.748Z,1.30
2022-11-10T00:10:29.107Z,1.13
2022-11-10T00:11:32.810Z,1.40
2022-11-10T00:12:36.343Z,1.33
2022-11-10T00:14:01.124Z,1.00
2022-11-10T00:15:24.089Z,1.17
2022-11-10T00:16:44.975Z,1.25
2022-11-10T00:17:47.651Z,1.10
2022-11-10T00:18:51.248Z,1.15
2022-11-10T00:19:53.730Z,1.00
2022-11-10T00:21:03.181Z,1.05
2022-11-10T00:22:05.493Z,0.90
2022-11-10T00:23:09.041Z,1.15
2022-11-10T00:24:11.341Z,1.20
2022-11-10T00:25:14.993Z,1.08
2022-11-10T00:26:19.815Z,1.03
2022-11-10T00:27:22.205Z,1.00
2022-11-10T00:28:25.615Z,1.20
2022-11-10T00:29:29.193Z,1.00
2022-11-10T00:30:33.009Z,1.00
2022-11-10T00:31:38.555Z,1.00
2022-11-10T00:32:41.143Z,0.85
2022-11-10T00:33:45.870Z,0.93
2022-11-10T00:34:48.506Z,1.20
2022-11-10T00:35:52.029Z,1.00
2022-11-10T00:36:54.333Z,1.17
2022-11-10T00:37:57.885Z,1.02
2022-11-10T00:39:00.169Z,1.10
2022-11-10T00:40:03.525Z,1.15
2022-11-10T00:41:06.045Z,1.20
2022-11-10T00:42:09.893Z,1.35
2022-11-10T00:43:12.658Z,1.40
2022-11-10T00:44:16.269Z,1.10
2022-11-10T00:45:18.527Z,1.20
2022-11-10T00:46:23.536Z,1.25
2022-11-10T00:47:25.940Z,1.10
2022-11-10T00:48:29.332Z,1.15
2022-11-10T00:49:31.723Z,1.10
2022-11-10T00:50:35.494Z,1.42
2022-11-10T00:51:38.109Z,1.20
2022-11-10T00:52:41.419Z,1.25
2022-11-10T00:53:43.808Z,1.40
2022-11-10T00:54:47.292Z,1.50
2022-11-10T00:55:49.841Z,1.45
2022-11-10T00:56:53.402Z,1.35
2022-11-10T00:57:56.013Z,1.10
2022-11-10T00:58:59.503Z,1.40
2022-11-10T01:00:01.988Z,1.45
2022-11-10T01:01:07.351Z,1.48
2022-11-10T01:02:12.329Z,1.73
2022-11-10T01:03:15.603Z,1.35
2022-11-10T01:04:19.378Z,1.60
2022-11-10T01:05:22.426Z,1.60
2022-11-10T01:06:26.325Z,2.13
2022-11-10T01:07:28.769Z,1.30
2022-11-10T01:08:32.343Z,1.87
2022-11-10T01:09:34.996Z,2.00
2022-11-10T01:10:38.840Z,1.83
2022-11-10T01:11:42.318Z,1.90
2022-11-10T01:12:46.094Z,1.70
2022-11-10T01:13:50.957Z,1.63
2022-11-10T01:14:54.334Z,1.55
2022-11-10T01:15:56.950Z,1.40
2022-11-10T01:17:00.543Z,1.48
2022-11-10T01:18:04.637Z,1.45
2022-11-10T01:19:07.966Z,1.17
2022-11-10T01:20:11.406Z,1.20
2022-11-10T01:21:14.906Z,1.60
2022-11-10T01:22:17.271Z,1.23
2022-11-10T01:23:21.300Z,1.10
2022-11-10T01:24:24.518Z,1.27
2022-11-10T01:25:27.999Z,1.35
2022-11-10T01:26:30.290Z,1.42
2022-11-10T01:27:34.044Z,1.40
2022-11-10T01:28:37.788Z,1.33
2022-11-10T01:29:41.591Z,1.10
2022-11-10T01:30:44.209Z,1.35
2022-11-10T01:31:47.857Z,1.65
2022-11-10T01:32:50.264Z,1.55
2022-11-10T01:33:55.057Z,1.50
2022-11-10T01:34:57.813Z,1.30
2022-11-10T01:36:01.660Z,1.40
2022-11-10T01:37:05.267Z,1.65
2022-11-10T01:38:07.853Z,1.52
2022-11-10T01:39:11.515Z,1.33
2022-11-10T01:40:14.599Z,1.10
2022-11-10T01:41:17.970Z,1.30
2022-11-10T01:42:25.869Z,1.08
2022-11-10T01:43:30.445Z,1.30
2022-11-10T01:44:33.975Z,1.38
2022-11-10T01:45:55.720Z,1.38
2022-11-10T01:46:58.422Z,1.02
2022-11-10T01:48:06.889Z,1.10
2022-11-10T01:49:13.930Z,1.40
2022-11-10T01:50:16.923Z,1.33
2022-11-10T01:51:25.113Z,1.67
2022-11-10T01:52:28.059Z,1.42
2022-11-10T01:53:34.954Z,1.77
2022-11-10T01:54:40.077Z,1.45
2022-11-10T01:55:45.638Z,1.38
2022-11-10T01:56:52.279Z,1.38
2022-11-10T01:57:55.366Z,1.13
2022-11-10T01:59:02.742Z,1.15
2022-11-10T02:00:05.965Z,1.33
2022-11-10T02:01:10.637Z,1.33
2022-11-10T02:02:19.811Z,1.40
2022-11-10T02:03:29.486Z,1.42
2022-11-10T02:04:36.460Z,1.38
2022-11-10T02:05:39.469Z,1.23
2022-11-10T02:06:47.100Z,1.13
2022-11-10T02:07:51.563Z,0.80
2022-11-10T02:08:56.203Z,1.00
2022-11-10T02:09:58.815Z,1.05
2022-11-10T02:11:02.563Z,0.95
2022-11-10T02:12:05.891Z,0.80
2022-11-10T02:13:10.087Z,1.73
2022-11-10T02:14:13.951Z,0.80
2022-11-10T02:15:19.950Z,0.80
2022-11-10T02:16:23.916Z,0.80
2022-11-10T02:17:26.305Z,0.95
2022-11-10T02:18:29.959Z,0.88
2022-11-10T02:19:40.925Z,1.00
2022-11-10T02:20:49.085Z,0.80
2022-11-10T02:21:52.798Z,0.95
2022-11-10T02:22:55.631Z,1.00
2022-11-10T02:23:59.107Z,1.43
2022-11-10T02:25:01.626Z,1.00
2022-11-10T02:26:07.271Z,1.10
2022-11-10T02:27:09.800Z,1.00
2022-11-10T02:28:13.382Z,0.80
2022-11-10T02:29:15.893Z,1.20
2022-11-10T02:30:21.969Z,0.93
2022-11-10T02:31:28.699Z,1.00
2022-11-10T02:32:31.318Z,1.13
2022-11-10T02:33:34.756Z,0.80
2022-11-10T02:34:37.524Z,1.00
2022-11-10T02:35:41.449Z,1.20
2022-11-10T02:36:45.941Z,1.13
2022-11-10T02:37:49.313Z,0.70
2022-11-10T02:38:51.862Z,0.90
2022-11-10T02:39:55.331Z,0.80
2022-11-10T02:40:57.731Z,1.25
2022-11-10T02:42:01.820Z,0.60
2022-11-10T02:43:06.718Z,0.63
2022-11-10T02:44:10.355Z,0.80
2022-11-10T02:45:12.660Z,0.80
2022-11-10T02:46:16.253Z,0.73
2022-11-10T02:47:18.872Z,0.60
2022-11-10T02:48:22.320Z,0.77
2022-11-10T02:49:24.611Z,0.80
2022-11-10T02:50:27.949Z,0.60
2022-11-10T02:51:30.177Z,0.90
2022-11-10T02:52:35.053Z,0.90
2022-11-10T02:53:37.528Z,0.80
2022-11-10T02:54:42.118Z,0.70
2022-11-10T02:55:44.434Z,0.53
2022-11-10T02:56:48.007Z,0.60
2022-11-10T02:57:50.427Z,0.70
2022-11-10T02:58:53.684Z,0.80
2022-11-10T02:59:56.078Z,1.00
2022-11-10T03:00:59.609Z,0.50
2022-11-10T03:02:01.937Z,0.88
2022-11-10T03:03:05.777Z,0.60
2022-11-10T03:04:08.899Z,0.80
2022-11-10T03:05:12.860Z,0.80
2022-11-10T03:06:15.112Z,0.70
2022-11-10T03:07:18.699Z,0.80
2022-11-10T03:08:22.500Z,0.88
2022-11-10T03:09:25.894Z,0.80
2022-11-10T03:10:29.327Z,0.90
2022-11-10T03:11:33.075Z,0.70
2022-11-10T03:12:35.728Z,0.98
2022-11-10T03:13:59.041Z,0.82
2022-11-10T03:15:02.874Z,0.80
2022-11-10T03:16:05.814Z,0.82
2022-11-10T03:17:09.104Z,1.07
2022-11-10T03:18:11.493Z,0.90
2022-11-10T03:19:14.996Z,0.80
2022-11-10T03:20:17.669Z,0.70
2022-11-10T03:21:21.009Z,0.70
2022-11-10T03:22:23.455Z,1.23
2022-11-10T03:23:28.550Z,1.20
2022-11-10T03:24:31.033Z,0.88
2022-11-10T03:25:34.491Z,0.90
2022-11-10T03:26:37.161Z,0.82
2022-11-10T03:27:40.860Z,0.90
2022-11-10T03:28:43.168Z,0.70
2022-11-10T03:29:46.613Z,0.80
2022-11-10T03:30:50.042Z,0.95
2022-11-10T03:31:52.466Z,0.65
2022-11-10T03:32:55.834Z,1.10
2022-11-10T03:33:58.280Z,0.80
2022-11-10T03:35:01.639Z,0.80
2022-11-10T03:36:05.810Z,0.80
2022-11-10T03:37:08.308Z,0.70
2022-11-10T03:38:11.646Z,0.77
2022-11-10T03:39:15.695Z,0.80
2022-11-10T03:40:19.251Z,0.60
2022-11-10T03:41:21.748Z,0.90
2022-11-10T03:42:25.410Z,0.77
2022-11-10T03:43:28.951Z,0.60
2022-11-10T03:44:31.501Z,0.90
2022-11-10T03:45:34.972Z,0.95
2022-11-10T03:46:38.953Z,0.77
2022-11-10T03:47:47.554Z,0.85
2022-11-10T03:48:53.531Z,1.00
2022-11-10T03:49:57.444Z,0.98
2022-11-10T03:50:59.874Z,0.82
2022-11-10T03:52:03.386Z,1.00
2022-11-10T03:53:05.805Z,1.00
2022-11-10T03:54:09.390Z,0.90
2022-11-10T03:55:16.771Z,0.70
2022-11-10T03:56:19.150Z,0.70
2022-11-10T03:57:22.542Z,0.80
2022-11-10T03:58:25.047Z,0.68
2022-11-10T03:59:28.429Z,1.00
2022-11-10T04:00:30.883Z,0.93
2022-11-10T04:01:34.664Z,0.93
2022-11-10T04:02:37.657Z,1.00
2022-11-10T04:03:41.361Z,0.88
2022-11-10T04:05:02.213Z,0.90
2022-11-10T04:06:28.286Z,1.00
2022-11-10T04:07:49.162Z,1.02
2022-11-10T04:09:01.731Z,0.80
2022-11-10T04:10:05.205Z,1.00
2022-11-10T04:11:10.183Z,1.00
2022-11-10T04:12:30.870Z,0.88
2022-11-10T04:13:51.980Z,0.90
2022-11-10T04:15:12.723Z,0.80
2022-11-10T04:16:16.268Z,1.10
2022-11-10T04:17:18.956Z,0.88
2022-11-10T04:18:24.784Z,1.10
2022-11-10T04:19:28.216Z,1.02
2022-11-10T04:20:30.686Z,1.10
2022-11-10T04:21:34.000Z,1.10
2022-11-10T04:23:06.525Z,1.20
2022-11-10T04:24:10.426Z,1.20
2022-11-10T04:25:12.769Z,1.20
2022-11-10T04:26:29.868Z,1.23
2022-11-10T04:27:32.164Z,1.08
2022-11-10T04:28:35.897Z,1.35
2022-11-10T04:29:39.563Z,1.13
2022-11-10T04:30:43.266Z,1.00
2022-11-10T04:31:47.316Z,1.08
2022-11-10T04:32:53.592Z,1.17
2022-11-10T04:33:57.270Z,1.30
2022-11-10T04:34:59.645Z,1.13
2022-11-10T04:36:03.237Z,1.23
2022-11-10T04:37:06.592Z,1.10
2022-11-10T04:38:10.048Z,1.00
2022-11-10T04:39:14.068Z,1.25
2022-11-10T04:40:16.847Z,1.13
2022-11-10T04:41:21.717Z,1.30
2022-11-10T04:42:24.124Z,1.33
2022-11-10T04:43:27.652Z,1.20
2022-11-10T04:44:31.297Z,1.40
2022-11-10T04:45:33.924Z,1.20
2022-11-10T04:46:39.360Z,1.40
2022-11-10T04:47:41.710Z,1.17
2022-11-10T04:48:45.182Z,1.10
2022-11-10T04:49:47.613Z,1.23
2022-11-10T04:50:51.372Z,1.20
2022-11-10T04:51:53.726Z,1.27
2022-11-10T04:52:57.627Z,1.20
2022-11-10T04:54:00.693Z,1.23
2022-11-10T04:55:04.193Z,1.33
2022-11-10T04:56:06.969Z,1.00
2022-11-10T04:57:11.921Z,1.30
2022-11-10T04:58:15.388Z,1.30
2022-11-10T04:59:19.481Z,1.10
2022-11-10T05:00:22.399Z,1.20
2022-11-10T05:01:28.555Z,1.30
2022-11-10T05:02:33.424Z,1.20
2022-11-10T05:03:40.606Z,1.40
2022-11-10T05:04:43.054Z,0.98
2022-11-10T05:05:46.496Z,1.50
2022-11-10T05:06:50.112Z,1.50
2022-11-10T05:07:52.663Z,1.60
2022-11-10T05:08:56.043Z,1.20
2022-11-10T05:09:58.253Z,1.38
2022-11-10T05:11:01.779Z,1.00
2022-11-10T05:12:04.718Z,1.30
2022-11-10T05:13:10.564Z,1.10
2022-11-10T05:14:13.018Z,1.52
2022-11-10T05:15:16.656Z,1.23
2022-11-10T05:16:20.931Z,1.30
2022-11-10T05:17:23.663Z,1.27
2022-11-10T05:18:27.687Z,1.20
2022-11-10T05:19:30.186Z,1.38
2022-11-10T05:20:33.457Z,1.17
2022-11-10T05:21:35.980Z,1.30
2022-11-10T05:22:39.556Z,1.20
2022-11-10T05:23:42.228Z,1.17
2022-11-10T05:24:45.483Z,1.15
2022-11-10T05:25:47.968Z,1.15
2022-11-10T05:26:51.268Z,1.33
2022-11-10T05:27:53.521Z,1.25
2022-11-10T05:28:58.320Z,1.27
2022-11-10T05:30:00.893Z,1.17
2022-11-10T05:31:04.583Z,1.20
2022-11-10T05:32:06.900Z,1.05
2022-11-10T05:33:10.232Z,1.20
2022-11-10T05:34:12.693Z,1.40
2022-11-10T05:35:16.026Z,1.25
2022-11-10T05:36:18.287Z,1.10
2022-11-10T05:37:21.618Z,1.27
2022-11-10T05:38:24.328Z,1.13
2022-11-10T05:39:28.272Z,1.40
2022-11-10T05:40:30.840Z,1.05
2022-11-10T05:41:34.251Z,1.20
2022-11-10T05:42:43.366Z,1.10
2022-11-10T05:43:47.008Z,1.10
2022-11-10T05:44:51.687Z,1.00
2022-11-10T05:45:55.404Z,1.20
2022-11-10T05:46:57.727Z,1.10
2022-11-10T05:48:01.354Z,1.17
2022-11-10T05:49:03.929Z,1.30
2022-11-10T05:50:09.278Z,1.00
2022-11-10T05:51:12.726Z,1.20
2022-11-10T05:52:15.264Z,1.23
2022-11-10T05:53:19.203Z,1.25
2022-11-10T05:54:21.606Z,1.25
2022-11-10T05:55:28.441Z,1.13
2022-11-10T05:56:30.769Z,1.25
2022-11-10T05:57:35.257Z,1.20
2022-11-10T05:58:39.156Z,1.37
2022-11-10T05:59:41.691Z,1.30
2022-11-10T06:00:47.545Z,1.40
2022-11-10T06:01:51.170Z,1.27
2022-11-10T06:03:02.285Z,1.40
2022-11-10T06:04:04.822Z,1.58
2022-11-10T06:05:09.687Z,1.30
2022-11-10T06:06:12.226Z,1.30
2022-11-10T06:07:15.749Z,1.42
2022-11-10T06:08:18.099Z,1.40
2022-11-10T06:09:21.530Z,1.33
2022-11-10T06:10:23.990Z,1.30
2022-11-10T06:11:27.599Z,1.65
2022-11-10T06:12:30.470Z,1.35
2022-11-10T06:13:34.018Z,1.58
2022-11-10T06:14:36.756Z,1.73
2022-11-10T06:15:40.302Z,1.70
2022-11-10T06:16:44.424Z,1.52
2022-11-10T06:17:48.171Z,1.80
2022-11-10T06:18:51.537Z,1.50
2022-11-10T06:19:54.275Z,2.10
2022-11-10T06:20:58.224Z,1.38
2022-11-10T06:22:06.452Z,1.60
2022-11-10T06:23:12.869Z,1.55
2022-11-10T06:24:15.233Z,1.60
2022-11-10T06:25:19.196Z,1.80
2022-11-10T06:26:21.930Z,1.80
2022-11-10T06:27:25.507Z,1.70
2022-11-10T06:28:28.899Z,1.50
2022-11-10T06:29:31.317Z,1.40
2022-11-10T06:30:37.804Z,1.60
2022-11-10T06:31:41.234Z,1.70
2022-11-10T06:32:46.644Z,1.50
2022-11-10T06:33:50.406Z,1.75
2022-11-10T06:34:57.853Z,1.77
2022-11-10T06:36:03.469Z,1.42
2022-11-10T06:37:05.743Z,1.60
2022-11-10T06:38:12.729Z,1.50
2022-11-10T06:39:14.890Z,1.70
2022-11-10T06:40:18.391Z,1.70
2022-11-10T06:41:25.163Z,1.43
2022-11-10T06:42:29.239Z,1.50
2022-11-10T06:43:31.706Z,1.67
2022-11-10T06:44:35.377Z,1.70
2022-11-10T06:45:38.793Z,1.60
2022-11-10T06:46:42.427Z,1.58
2022-11-10T06:47:47.196Z,1.60
2022-11-10T06:48:49.417Z,1.40
2022-11-10T06:49:52.793Z,1.50
2022-11-10T06:50:55.250Z,1.50
2022-11-10T06:51:58.446Z,1.63
2022-11-10T06:53:02.808Z,1.80
2022-11-10T06:54:05.385Z,1.38
2022-11-10T06:55:09.871Z,1.33
2022-11-10T06:56:13.426Z,1.58
2022-11-10T06:57:15.904Z,1.50
2022-11-10T06:58:19.803Z,1.88
2022-11-10T06:59:22.067Z,1.40
2022-11-10T07:00:26.567Z,1.80
2022-11-10T07:01:30.037Z,1.30
2022-11-10T07:02:32.358Z,1.50
2022-11-10T07:03:41.350Z,1.58
2022-11-10T07:04:56.726Z,1.40
2022-11-10T07:05:59.477Z,1.48
2022-11-10T07:07:02.904Z,1.30
2022-11-10T07:08:06.876Z,1.40
2022-11-10T07:09:10.345Z,1.40
2022-11-10T07:10:12.560Z,1.50
2022-11-10T07:11:16.117Z,2.03
2022-11-10T07:12:19.846Z,1.40
2022-11-10T07:13:22.610Z,1.77
2022-11-10T07:14:26.143Z,1.80
2022-11-10T07:15:28.773Z,1.73
2022-11-10T07:16:31.994Z,1.95
2022-11-10T07:17:40.009Z,1.70
2022-11-10T07:18:45.555Z,1.95
2022-11-10T07:19:50.040Z,2.05
2022-11-10T07:20:52.402Z,1.67
2022-11-10T07:21:55.681Z,1.45
2022-11-10T07:22:59.542Z,1.70
2022-11-10T07:24:02.948Z,1.50
2022-11-10T07:25:06.194Z,2.03
2022-11-10T07:26:09.481Z,1.67
2022-11-10T07:27:13.005Z,1.70
2022-11-10T07:28:16.607Z,2.08
2022-11-10T07:29:18.915Z,1.63
2022-11-10T07:30:22.344Z,1.90
2022-11-10T07:31:25.863Z,1.70
2022-11-10T07:32:29.278Z,1.80
2022-11-10T07:33:32.758Z,1.88
2022-11-10T07:34:37.877Z,1.80
2022-11-10T07:35:40.283Z,1.60
2022-11-10T07:36:43.769Z,2.30
2022-11-10T07:37:46.001Z,2.00
2022-11-10T07:38:49.350Z,1.90
2022-11-10T07:39:52.700Z,1.80
2022-11-10T07:40:56.577Z,1.58
2022-11-10T07:41:59.969Z,1.80
2022-11-10T07:43:02.712Z,1.95
2022-11-10T07:44:06.221Z,1.50
2022-11-10T07:45:10.558Z,1.67
2022-11-10T07:46:14.153Z,1.92
2022-11-10T07:47:16.593Z,1.45
2022-11-10T07:48:20.560Z,2.03
2022-11-10T07:49:23.814Z,1.70
2022-11-10T07:50:28.145Z,1.70
2022-11-10T07:51:31.755Z,1.52
2022-11-10T07:52:35.868Z,1.42
2022-11-10T07:53:39.991Z,1.52
2022-11-10T07:54:42.271Z,1.75
2022-11-10T07:55:46.522Z,1.70
2022-11-10T07:56:50.077Z,1.55
2022-11-10T07:57:57.831Z,1.70
2022-11-10T07:59:01.175Z,1.70
2022-11-10T08:00:04.633Z,1.40
2022-11-10T08:01:08.106Z,1.70
2022-11-10T08:02:11.310Z,1.40
2022-11-10T08:03:17.658Z,1.45
2022-11-10T08:04:20.096Z,1.60
2022-11-10T08:05:23.509Z,1.40
2022-11-10T08:06:30.142Z,1.37
2022-11-10T08:07:35.654Z,1.42
2022-11-10T08:08:39.094Z,1.90
2022-11-10T08:09:42.678Z,1.98
2022-11-10T08:10:46.632Z,1.60
2022-11-10T08:11:48.897Z,1.90
2022-11-10T08:12:56.899Z,1.95
2022-11-10T08:14:00.298Z,1.70
2022-11-10T08:15:02.687Z,2.63
2022-11-10T08:16:06.677Z,1.75
2022-11-10T08:17:10.251Z,2.50
2022-11-10T08:18:18.743Z,2.53
2022-11-10T08:19:22.275Z,2.55
2022-11-10T08:20:25.105Z,2.97
2022-11-10T08:21:30.169Z,2.08
2022-11-10T08:22:32.743Z,2.20
2022-11-10T08:23:36.333Z,2.10
2022-11-10T08:24:39.056Z,1.77
2022-11-10T08:25:43.293Z,1.90
2022-11-10T08:26:45.713Z,1.80
2022-11-10T08:27:49.105Z,1.77
2022-11-10T08:28:52.752Z,1.90
2022-11-10T08:29:55.359Z,2.00
2022-11-10T08:31:04.249Z,2.15
2022-11-10T08:32:08.733Z,2.08
2022-11-10T08:33:12.789Z,1.63
2022-11-10T08:34:16.451Z,2.10
2022-11-10T08:35:18.984Z,1.70
2022-11-10T08:36:22.499Z,1.90
2022-11-10T08:37:27.510Z,2.08
2022-11-10T08:38:31.218Z,2.10
2022-11-10T08:39:40.546Z,1.80
2022-11-10T08:40:45.037Z,2.13
2022-11-10T08:41:49.100Z,1.58
2022-11-10T08:42:59.469Z,1.50
2022-11-10T08:44:04.670Z,1.63
2022-11-10T08:45:09.128Z,1.73
2022-11-10T08:46:12.666Z,1.75
2022-11-10T08:47:14.924Z,1.65
2022-11-10T08:48:21.141Z,1.30
2022-11-10T08:49:23.653Z,1.30
2022-11-10T08:50:27.499Z,1.52
2022-11-10T08:51:32.610Z,1.67
2022-11-10T08:52:40.006Z,1.20
2022-11-10T08:53:42.367Z,1.73
2022-11-10T08:54:45.754Z,1.92
2022-11-10T08:55:49.635Z,2.00
2022-11-10T08:56:52.173Z,1.30
2022-11-10T08:58:00.356Z,1.50
2022-11-10T08:59:03.104Z,1.30
2022-11-10T09:00:07.969Z,1.67
2022-11-10T09:01:11.712Z,1.40
2022-11-10T09:02:15.154Z,1.48
2022-11-10T09:03:20.757Z,1.50
2022-11-10T09:04:23.725Z,1.85
2022-11-10T09:05:27.133Z,1.42
2022-11-10T09:06:31.863Z,1.33
2022-11-10T09:07:43.693Z,1.63
2022-11-10T09:08:48.612Z,1.85
2022-11-10T09:10:06.049Z,1.35
2022-11-10T09:11:10.537Z,1.60
2022-11-10T09:12:13.120Z,1.45
2022-11-10T09:13:17.368Z,1.67
2022-11-10T09:14:19.996Z,1.67
2022-11-10T09:15:23.623Z,1.58
2022-11-10T09:16:27.161Z,1.58
2022-11-10T09:17:29.472Z,1.40
2022-11-10T09:18:33.690Z,1.30
2022-11-10T09:19:37.431Z,1.40
2022-11-10T09:20:41.812Z,1.33
2022-11-10T09:21:44.505Z,1.30
2022-11-10T09:22:48.119Z,1.30
2022-11-10T09:23:51.889Z,1.40
2022-11-10T09:24:55.277Z,1.33
2022-11-10T09:25:58.919Z,1.30
2022-11-10T09:27:02.738Z,1.50
2022-11-10T09:28:06.970Z,1.60
2022-11-10T09:29:10.566Z,1.60
2022-11-10T09:30:17.623Z,1.50
2022-11-10T09:31:21.712Z,1.50
2022-11-10T09:32:24.181Z,1.37
2022-11-10T09:33:27.488Z,1.55
2022-11-10T09:34:29.814Z,1.30
2022-11-10T09:35:33.568Z,1.40
2022-11-10T09:36:37.706Z,1.55
2022-11-10T09:37:41.849Z,1.40
2022-11-10T09:38:45.344Z,1.25
2022-11-10T09:39:49.040Z,1.30
2022-11-10T09:41:01.099Z,1.40
2022-11-10T09:42:07.060Z,1.27
2022-11-10T09:43:18.530Z,1.40
2022-11-10T09:44:27.103Z,1.40
2022-11-10T09:45:37.817Z,1.40
2022-11-10T09:46:45.293Z,1.42
2022-11-10T09:47:58.556Z,1.50
2022-11-10T09:49:08.490Z,1.58
2022-11-10T09:50:19.111Z,1.50
2022-11-10T09:51:27.058Z,3.25
2022-11-10T09:52:33.609Z,1.30
2022-11-10T09:53:42.766Z,1.40
2022-11-10T09:54:54.058Z,1.50
2022-11-10T09:56:01.438Z,1.50
2022-11-10T09:57:07.831Z,1.48
2022-11-10T09:58:14.039Z,1.50
2022-11-10T09:59:26.261Z,1.23
2022-11-10T10:00:34.230Z,1.48
2022-11-10T10:01:47.341Z,1.52
2022-11-10T10:02:56.923Z,1.40
2022-11-10T10:04:14.631Z,1.60
2022-11-10T10:05:35.448Z,1.50
2022-11-10T10:07:09.633Z,1.50
2022-11-10T10:08:14.868Z,1.50
2022-11-10T10:09:28.581Z,1.30
2022-11-10T10:10:38.260Z,1.42
2022-11-10T10:11:54.432Z,1.45
2022-11-10T10:13:13.349Z,1.65
2022-11-10T10:14:31.674Z,1.75
2022-11-10T10:15:45.691Z,1.23
2022-11-10T10:16:55.855Z,1.50
2022-11-10T10:18:17.978Z,1.30
2022-11-10T10:19:29.364Z,1.50
2022-11-10T10:20:41.636Z,1.52
2022-11-10T10:21:57.237Z,1.75
2022-11-10T10:23:09.614Z,1.45
2022-11-10T10:24:20.168Z,1.30
2022-11-10T10:25:28.177Z,1.33
2022-11-10T10:26:37.158Z,1.40
2022-11-10T10:27:44.456Z,1.40
2022-11-10T10:28:50.013Z,1.42
2022-11-10T10:29:53.247Z,1.42
2022-11-10T10:31:02.549Z,1.20
2022-11-10T10:32:11.355Z,1.30
2022-11-10T10:33:18.078Z,1.17
2022-11-10T10:34:24.700Z,1.10
2022-11-10T10:35:29.696Z,1.70
2022-11-10T10:36:32.238Z,1.42
2022-11-10T10:37:40.946Z,1.10
2022-11-10T10:38:46.751Z,1.17
2022-11-10T10:39:52.459Z,1.27
2022-11-10T10:41:02.068Z,1.38
2022-11-10T10:42:17.412Z,1.80
2022-11-10T10:43:21.263Z,1.20
2022-11-10T10:44:25.423Z,1.40
2022-11-10T10:45:29.248Z,1.15
2022-11-10T10:46:46.163Z,1.10
2022-11-10T10:47:51.708Z,1.50
2022-11-10T10:49:32.942Z,1.00
2022-11-10T10:50:38.239Z,1.25
2022-11-10T10:51:41.551Z,1.33
2022-11-10T10:52:44.123Z,1.30
2022-11-10T10:53:48.356Z,1.30
2022-11-10T10:55:01.442Z,1.00
2022-11-10T10:56:09.230Z,0.98
2022-11-10T10:57:23.914Z,1.00
2022-11-10T10:58:28.214Z,1.17
2022-11-10T10:59:32.165Z,1.27
2022-11-10T11:00:44.144Z,1.02
2022-11-10T11:01:47.461Z,1.50
2022-11-10T11:03:04.784Z,1.30
2022-11-10T11:04:29.452Z,1.10
2022-11-10T11:05:33.051Z,1.00
2022-11-10T11:06:37.345Z,0.90
2022-11-10T11:07:39.993Z,1.20
2022-11-10T11:08:59.221Z,1.02
2022-11-10T11:10:03.411Z,0.80
2022-11-10T11:11:12.465Z,0.95
2022-11-10T11:12:30.304Z,1.10
2022-11-10T11:13:32.640Z,0.90
2022-11-10T11:14:36.070Z,0.93
2022-11-10T11:15:38.513Z,1.10
2022-11-10T11:16:48.760Z,1.20
2022-11-10T11:18:00.131Z,1.00
2022-11-10T11:19:03.449Z,1.05
2022-11-10T11:20:11.380Z,1.20
2022-11-10T11:21:29.965Z,0.90
2022-11-10T11:22:47.933Z,1.33
2022-11-10T11:24:16.410Z,1.20
2022-11-10T11:25:26.991Z,0.85
2022-11-10T11:26:41.483Z,1.08
2022-11-10T11:27:58.432Z,1.40
2022-11-10T11:29:16.552Z,1.20
2022-11-10T11:30:21.392Z,1.38
2022-11-10T11:31:42.667Z,1.40
2022-11-10T11:33:17.540Z,1.30
2022-11-10T11:34:29.158Z,1.30
2022-11-10T11:35:39.948Z,1.33
2022-11-10T11:36:53.217Z,1.20
2022-11-10T11:38:04.260Z,1.00
2022-11-10T11:39:23.498Z,1.20
2022-11-10T11:40:38.536Z,1.30
2022-11-10T11:41:50.481Z,1.30
2022-11-10T11:43:09.077Z,1.10
2022-11-10T11:44:22.899Z,1.00
2022-11-10T11:45:35.152Z,1.48
2022-11-10T11:46:49.322Z,1.10
2022-11-10T11:48:20.080Z,1.10
2022-11-10T11:49:43.359Z,1.45
2022-11-10T11:50:55.462Z,1.20
2022-11-10T11:52:08.424Z,1.10
2022-11-10T11:53:26.847Z,1.30
2022-11-10T11:54:41.050Z,1.23
2022-11-10T11:55:57.832Z,1.00
2022-11-10T11:57:09.201Z,1.10
2022-11-10T11:58:25.588Z,1.10
2022-11-10T11:59:54.243Z,0.90
2022-11-10T12:01:08.927Z,1.08
2022-11-10T12:02:39.655Z,1.10
2022-11-10T12:04:16.339Z,0.90
2022-11-10T12:05:31.454Z,1.10
2022-11-10T12:06:48.323Z,0.90
2022-11-10T12:08:00.750Z,1.07
2022-11-10T12:09:17.447Z,0.90
2022-11-10T12:10:31.972Z,1.33
2022-11-10T12:11:52.557Z,1.10
2022-11-10T12:13:17.231Z,1.40
2022-11-10T12:14:34.944Z,1.00
2022-11-10T12:15:45.743Z,1.23
2022-11-10T12:16:59.430Z,1.00
2022-11-10T12:18:12.674Z,1.13
2022-11-10T12:19:26.241Z,1.08
2022-11-10T12:20:43.741Z,1.20
2022-11-10T12:21:53.143Z,1.05
2022-11-10T12:23:06.834Z,1.20
2022-11-10T12:24:30.137Z,1.30
2022-11-10T12:25:41.997Z,1.17
2022-11-10T12:26:53.943Z,1.40
2022-11-10T12:28:01.688Z,1.13
2022-11-10T12:29:11.951Z,1.33
2022-11-10T12:30:19.515Z,1.20
2022-11-10T12:31:27.092Z,1.00
2022-11-10T12:32:37.064Z,1.10
2022-11-10T12:33:43.619Z,1.17
2022-11-10T12:34:51.679Z,1.55
2022-11-10T12:35:59.093Z,1.00
2022-11-10T12:37:06.920Z,1.00
2022-11-10T12:38:15.113Z,0.90
2022-11-10T12:39:22.648Z,1.38
2022-11-10T12:40:31.769Z,6.88
2022-11-10T12:41:41.388Z,6.47
2022-11-10T12:42:48.381Z,2.30
2022-11-10T12:44:04.957Z,1.57
2022-11-10T12:45:18.972Z,1.05
2022-11-10T12:46:23.683Z,0.90
2022-11-10T12:47:29.617Z,1.17
2022-11-10T12:48:40.910Z,1.10
2022-11-10T12:50:03.626Z,1.10
2022-11-10T12:51:15.273Z,1.30
2022-11-10T12:52:29.267Z,1.00
2022-11-10T12:53:35.409Z,1.20
2022-11-10T12:54:38.857Z,1.00
2022-11-10T12:55:45.578Z,1.27
2022-11-10T12:56:53.611Z,1.00
2022-11-10T12:57:56.956Z,1.10
2022-11-10T12:59:24.682Z,1.20
2022-11-10T13:00:30.328Z,1.10
2022-11-10T13:01:35.174Z,1.13
2022-11-10T13:02:42.270Z,1.33
2022-11-10T13:03:56.897Z,1.08
2022-11-10T13:05:27.437Z,1.30
2022-11-10T13:06:35.925Z,1.30
2022-11-10T13:07:38.432Z,1.10
2022-11-10T13:08:50.047Z,1.25
2022-11-10T13:09:52.406Z,1.30
2022-11-10T13:11:02.399Z,1.20
2022-11-10T13:12:16.028Z,1.20
2022-11-10T13:13:19.597Z,1.35
2022-11-10T13:14:26.582Z,1.10
2022-11-10T13:15:48.605Z,1.60
2022-11-10T13:16:55.949Z,1.20
2022-11-10T13:18:00.047Z,1.00
2022-11-10T13:19:03.672Z,1.20
2022-11-10T13:20:45.860Z,1.00
2022-11-10T13:22:13.600Z,1.35
2022-11-10T13:23:29.031Z,1.20
2022-11-10T13:24:33.350Z,1.08
2022-11-10T13:25:52.711Z,1.08
2022-11-10T13:26:56.909Z,1.50
2022-11-10T13:27:59.348Z,1.13
2022-11-10T13:29:05.152Z,1.38
2022-11-10T13:30:10.224Z,1.35
2022-11-10T13:31:41.997Z,1.40
2022-11-10T13:32:46.761Z,1.13
2022-11-10T13:34:10.480Z,1.30
2022-11-10T13:35:50.021Z,1.02
2022-11-10T13:36:57.333Z,0.93
2022-11-10T13:38:01.697Z,1.13
2022-11-10T13:39:23.906Z,1.20
2022-11-10T13:40:37.440Z,1.20
2022-11-10T13:41:47.596Z,1.10
2022-11-10T13:43:19.899Z,1.10
2022-11-10T13:44:27.951Z,1.10
2022-11-10T13:45:33.029Z,0.98
2022-11-10T13:46:38.043Z,1.10
2022-11-10T13:47:58.649Z,1.17
2022-11-10T13:49:31.351Z,1.30
2022-11-10T13:50:52.576Z,0.93
2022-11-10T13:52:06.475Z,1.10
2022-11-10T13:53:24.206Z,1.00
2022-11-10T13:54:46.324Z,1.10
2022-11-10T13:56:06.110Z,1.05
2022-11-10T13:57:22.774Z,1.10
2022-11-10T13:58:29.153Z,1.00
2022-11-10T13:59:34.347Z,1.17
2022-11-10T14:00:38.686Z,1.30
2022-11-10T14:01:41.134Z,1.13
2022-11-10T14:02:58.346Z,1.10
2022-11-10T14:04:02.757Z,1.40
2022-11-10T14:05:07.224Z,1.02
2022-11-10T14:06:14.042Z,1.05
2022-11-10T14:07:19.824Z,0.90
2022-11-10T14:08:25.513Z,1.10
2022-11-10T14:09:33.441Z,1.25
2022-11-10T14:10:40.616Z,1.23
2022-11-10T14:11:50.293Z,1.10
2022-11-10T14:12:57.538Z,1.15
2022-11-10T14:14:05.916Z,1.42
2022-11-10T14:15:17.342Z,1.20
2022-11-10T14:16:23.759Z,1.45
2022-11-10T14:17:30.810Z,1.23
2022-11-10T14:18:42.091Z,1.08
2022-11-10T14:19:47.706Z,1.37
2022-11-10T14:20:57.709Z,1.20
2022-11-10T14:22:08.882Z,1.40
2022-11-10T14:23:21.439Z,1.13
2022-11-10T14:24:29.923Z,1.40
2022-11-10T14:25:36.435Z,1.20
2022-11-10T14:26:42.584Z,1.27
2022-11-10T14:27:46.409Z,1.13
2022-11-10T14:28:49.068Z,1.48
2022-11-10T14:30:05.509Z,1.10
2022-11-10T14:31:20.765Z,1.20
2022-11-10T14:32:26.237Z,1.02
2022-11-10T14:33:28.938Z,1.20
2022-11-10T14:34:44.004Z,1.20
2022-11-10T14:35:51.294Z,1.40
2022-11-10T14:36:55.366Z,1.30
2022-11-10T14:38:00.784Z,1.30
2022-11-10T14:39:08.220Z,1.38
2022-11-10T14:40:18.778Z,1.73
2022-11-10T14:41:24.225Z,1.15
2022-11-10T14:42:30.441Z,1.50
2022-11-10T14:43:35.646Z,1.00
2022-11-10T14:44:39.282Z,1.15
2022-11-10T14:45:52.239Z,1.08
2022-11-10T14:46:54.876Z,1.20
2022-11-10T14:47:59.963Z,1.20